createdAt,value
2023-04-02T00:00:53.910Z,96.01
2023-04-02T00:01:53.970Z,95.49
2023-04-02T00:02:53.931Z,95.49
2023-04-02T00:03:54.231Z,95.28
2023-04-02T00:04:53.872Z,95.28
2023-04-02T00:05:53.879Z,95.18
2023-04-02T00:06:53.812Z,95.12
2023-04-02T00:07:53.916Z,95.32
2023-04-02T00:08:53.806Z,95.32
2023-04-02T00:09:53.834Z,94.60
2023-04-02T00:10:53.814Z,95.06
2023-04-02T00:11:53.834Z,95.32
2023-04-02T00:12:53.754Z,95.95
2023-04-02T00:13:53.778Z,96.47
2023-04-02T00:14:53.720Z,96.56
2023-04-02T00:15:53.751Z,96.15
2023-04-02T00:16:53.753Z,94.92
2023-04-02T00:17:53.760Z,94.87
2023-04-02T00:18:53.728Z,94.87
2023-04-02T00:19:53.716Z,94.29
2023-04-02T00:20:53.664Z,94.60
2023-04-02T00:21:53.670Z,94.60
2023-04-02T00:22:53.653Z,95.12
2023-04-02T00:23:53.714Z,95.12
2023-04-02T00:24:53.627Z,94.92
2023-04-02T00:25:53.659Z,95.32
2023-04-02T00:26:53.604Z,95.37
2023-04-02T00:27:53.639Z,95.48
2023-04-02T00:28:53.582Z,95.78
2023-04-02T00:29:53.579Z,95.78
2023-04-02T00:30:53.611Z,96.09
2023-04-02T00:31:53.700Z,95.57
2023-04-02T00:32:53.641Z,95.99
2023-04-02T00:33:53.604Z,95.57
2023-04-02T00:34:53.521Z,95.57
2023-04-02T00:35:53.552Z,96.09
2023-04-02T00:36:53.515Z,96.61
2023-04-02T00:37:53.538Z,96.72
2023-04-02T00:38:53.481Z,96.30
2023-04-02T00:39:54.937Z,95.68
2023-04-02T00:40:53.443Z,95.57
2023-04-02T00:41:53.456Z,94.96
2023-04-02T00:42:53.438Z,94.81
2023-04-02T00:43:53.457Z,94.44
2023-04-02T00:44:53.447Z,94.96
2023-04-02T00:45:53.458Z,94.44
2023-04-02T00:46:53.385Z,94.54
2023-04-02T00:47:53.431Z,94.75
2023-04-02T00:48:53.368Z,94.85
2023-04-02T00:49:53.396Z,94.75
2023-04-02T00:50:53.361Z,94.34
2023-04-02T00:51:53.360Z,94.54
2023-04-02T00:52:53.321Z,95.06
2023-04-02T00:53:53.325Z,95.42
2023-04-02T00:54:53.275Z,95.68
2023-04-02T00:55:53.317Z,94.75
2023-04-02T00:56:53.303Z,94.90
2023-04-02T00:57:53.267Z,95.42
2023-04-02T00:58:53.251Z,95.52
2023-04-02T00:59:53.270Z,95.94
2023-04-02T01:00:53.223Z,96.24
2023-04-02T01:01:54.011Z,96.14
2023-04-02T01:03:52.654Z,95.94
2023-04-02T01:04:52.590Z,95.83
2023-04-02T01:05:52.590Z,95.62
2023-04-02T01:06:52.572Z,95.73
2023-04-02T01:07:52.806Z,95.42
2023-04-02T01:08:52.537Z,95.31
2023-04-02T01:09:52.512Z,95.42
2023-04-02T01:10:52.527Z,95.52
2023-04-02T01:11:52.577Z,94.79
2023-04-02T01:12:52.598Z,95.00
2023-04-02T01:13:52.458Z,94.90
2023-04-02T01:14:52.480Z,94.94
2023-04-02T01:15:52.489Z,94.73
2023-04-02T01:16:52.467Z,94.94
2023-04-02T01:17:52.414Z,95.00
2023-04-02T01:18:52.419Z,94.69
2023-04-02T01:19:52.473Z,94.53
2023-04-02T01:20:52.498Z,94.84
2023-04-02T01:21:52.385Z,94.43
2023-04-02T01:22:52.376Z,94.63
2023-04-02T01:23:52.342Z,94.73
2023-04-02T01:24:52.442Z,94.94
2023-04-02T01:25:52.466Z,95.46
2023-04-02T01:26:52.347Z,95.46
2023-04-02T01:27:52.298Z,95.36
2023-04-02T01:28:52.306Z,95.36
2023-04-02T01:29:52.305Z,95.15
2023-04-02T01:30:52.293Z,95.56
2023-04-02T01:31:52.405Z,95.67
2023-04-02T01:32:52.308Z,95.98
2023-04-02T01:33:52.239Z,95.67
2023-04-02T01:34:52.337Z,95.15
2023-04-02T01:35:52.223Z,95.56
2023-04-02T01:36:52.239Z,95.67
2023-04-02T01:37:52.207Z,95.98
2023-04-02T01:38:52.353Z,96.03
2023-04-02T01:39:52.321Z,95.73
2023-04-02T01:40:52.183Z,95.00
2023-04-02T01:41:52.173Z,94.90
2023-04-02T01:42:52.148Z,94.90
2023-04-02T01:43:52.134Z,95.10
2023-04-02T01:44:52.151Z,95.31
2023-04-02T01:45:52.091Z,94.38
2023-04-02T01:46:52.136Z,94.12
2023-04-02T01:47:52.115Z,94.84
2023-04-02T01:48:52.118Z,95.15
2023-04-02T01:49:52.076Z,94.90
2023-04-02T01:50:52.061Z,94.38
2023-04-02T01:51:52.025Z,94.48
2023-04-02T01:52:52.051Z,94.38
2023-04-02T01:53:52.028Z,93.97
2023-04-02T01:54:52.014Z,94.18
2023-04-02T01:55:51.987Z,94.28
2023-04-02T01:56:52.052Z,94.59
2023-04-02T01:57:51.968Z,94.38
2023-04-02T01:58:51.999Z,94.22
2023-04-02T01:59:51.949Z,94.84
2023-04-02T02:00:51.986Z,95.36
2023-04-02T02:01:51.952Z,94.32
2023-04-02T02:02:52.053Z,94.84
2023-04-02T02:03:51.899Z,94.89
2023-04-02T02:04:51.909Z,94.37
2023-04-02T02:05:51.887Z,94.78
2023-04-02T02:06:51.893Z,94.98
2023-04-02T02:07:51.844Z,95.40
2023-04-02T02:08:51.862Z,95.61
2023-04-02T02:09:51.818Z,95.03
2023-04-02T02:10:51.882Z,95.44
2023-04-02T02:11:51.819Z,95.50
2023-04-02T02:12:51.819Z,95.09
2023-04-02T02:13:51.800Z,94.98
2023-04-02T02:14:51.803Z,95.09
2023-04-02T02:15:51.808Z,94.89
2023-04-02T02:16:51.775Z,95.03
2023-04-02T02:17:51.786Z,95.09
2023-04-02T02:18:51.774Z,95.50
2023-04-02T02:19:51.711Z,95.65
2023-04-02T02:20:51.754Z,95.92
2023-04-02T02:21:51.707Z,95.44
2023-04-02T02:22:51.719Z,95.65
2023-04-02T02:23:51.694Z,95.75
2023-04-02T02:24:51.696Z,95.54
2023-04-02T02:25:51.696Z,95.65
2023-04-02T02:26:51.686Z,95.61
2023-04-02T02:27:51.662Z,95.71
2023-04-02T02:28:51.660Z,95.19
2023-04-02T02:29:51.611Z,95.03
2023-04-02T02:30:51.642Z,94.82
2023-04-02T02:31:51.620Z,95.03
2023-04-02T02:32:51.668Z,95.34
2023-04-02T02:33:51.577Z,95.34
2023-04-02T02:34:51.567Z,94.62
2023-04-02T02:35:51.597Z,94.82
2023-04-02T02:36:51.551Z,95.28
2023-04-02T02:37:51.538Z,95.28
2023-04-02T02:38:53.207Z,95.49
2023-04-02T02:39:51.507Z,95.39
2023-04-02T02:40:51.540Z,95.07
2023-04-02T02:41:51.488Z,95.18
2023-04-02T02:42:51.482Z,95.18
2023-04-02T02:43:51.432Z,95.28
2023-04-02T02:44:51.478Z,95.07
2023-04-02T02:45:51.464Z,94.76
2023-04-02T02:46:51.434Z,94.97
2023-04-02T02:47:51.460Z,95.07
2023-04-02T02:48:51.407Z,94.66
2023-04-02T02:49:51.397Z,94.45
2023-04-02T02:50:51.416Z,94.66
2023-04-02T02:51:51.350Z,95.07
2023-04-02T02:52:51.369Z,95.07
2023-04-02T02:53:51.347Z,95.12
2023-04-02T02:54:51.376Z,95.32
2023-04-02T02:55:51.307Z,95.22
2023-04-02T02:56:52.039Z,95.32
2023-04-02T02:57:51.307Z,94.60
2023-04-02T02:58:51.300Z,94.70
2023-04-02T02:59:51.324Z,94.91
2023-04-02T03:00:51.307Z,94.70
2023-04-02T03:01:51.298Z,95.01
2023-04-02T03:02:51.381Z,94.87
2023-04-02T03:03:51.344Z,94.87
2023-04-02T03:04:51.285Z,93.93
2023-04-02T03:05:51.206Z,94.14
2023-04-02T03:06:51.242Z,94.29
2023-04-02T03:07:51.189Z,94.56
2023-04-02T03:08:51.222Z,94.56
2023-04-02T03:09:51.156Z,94.14
2023-04-02T03:10:51.195Z,94.35
2023-04-02T03:11:51.171Z,93.98
2023-04-02T03:12:51.140Z,93.87
2023-04-02T03:13:51.111Z,93.87
2023-04-02T03:14:51.120Z,94.49
2023-04-02T03:15:51.124Z,94.66
2023-04-02T03:16:51.136Z,93.77
2023-04-02T03:17:51.066Z,93.66
2023-04-02T03:18:51.122Z,93.66
2023-04-02T03:19:51.796Z,94.08
2023-04-02T03:20:51.060Z,94.49
2023-04-02T03:21:51.046Z,94.18
2023-04-02T03:22:51.043Z,94.18
2023-04-02T03:23:51.009Z,94.70
2023-04-02T03:24:51.024Z,95.12
2023-04-02T03:25:50.969Z,95.28
2023-04-02T03:26:51.029Z,94.87
2023-04-02T03:27:50.985Z,94.56
2023-04-02T03:28:51.000Z,94.49
2023-04-02T03:29:50.999Z,94.70
2023-04-02T03:30:50.947Z,94.60
2023-04-02T03:31:50.918Z,94.29
2023-04-02T03:32:51.054Z,94.60
2023-04-02T03:33:50.952Z,95.22
2023-04-02T03:34:50.896Z,95.43
2023-04-02T03:35:50.888Z,94.91
2023-04-02T03:36:51.855Z,94.64
2023-04-02T03:37:50.893Z,94.74
2023-04-02T03:38:50.867Z,95.26
2023-04-02T03:39:51.814Z,95.43
2023-04-02T03:40:50.835Z,95.32
2023-04-02T03:41:50.804Z,95.53
2023-04-02T03:42:50.875Z,94.60
2023-04-02T03:43:50.772Z,94.91
2023-04-02T03:44:50.802Z,95.22
2023-04-02T03:45:50.788Z,95.22
2023-04-02T03:46:50.914Z,95.57
2023-04-02T03:47:50.793Z,95.84
2023-04-02T03:48:50.781Z,95.84
2023-04-02T03:49:50.834Z,94.60
2023-04-02T03:50:51.699Z,93.98
2023-04-02T03:51:50.694Z,93.50
2023-04-02T03:52:50.791Z,93.60
2023-04-02T03:53:50.662Z,93.60
2023-04-02T03:54:53.831Z,94.33
2023-04-02T03:55:50.804Z,94.64
2023-04-02T03:56:50.718Z,94.89
2023-04-02T03:57:50.675Z,95.00
2023-04-02T03:58:50.691Z,95.16
2023-04-02T03:59:50.601Z,94.54
2023-04-02T04:00:50.632Z,94.37
2023-04-02T04:01:50.660Z,94.37
2023-04-02T04:02:51.324Z,94.48
2023-04-02T04:03:50.613Z,94.58
2023-04-02T04:04:50.580Z,95.00
2023-04-02T04:05:50.615Z,95.10
2023-04-02T04:06:50.588Z,94.89
2023-04-02T04:07:50.672Z,94.89
2023-04-02T04:08:50.578Z,95.10
2023-04-02T04:09:50.509Z,94.89
2023-04-02T04:10:50.597Z,94.37
2023-04-02T04:11:50.466Z,94.58
2023-04-02T04:12:50.488Z,94.58
2023-04-02T04:13:50.527Z,94.48
2023-04-02T04:14:51.432Z,95.00
2023-04-02T04:15:50.487Z,95.10
2023-04-02T04:16:50.455Z,94.68
2023-04-02T04:17:50.433Z,94.48
2023-04-02T04:18:50.432Z,94.58
2023-04-02T04:19:50.406Z,94.27
2023-04-02T04:20:50.423Z,93.96
2023-04-02T04:21:50.360Z,94.27
2023-04-02T04:22:50.401Z,94.58
2023-04-02T04:23:50.340Z,94.32
2023-04-02T04:24:50.348Z,94.53
2023-04-02T04:25:50.338Z,95.15
2023-04-02T04:26:50.326Z,94.89
2023-04-02T04:27:50.281Z,94.73
2023-04-02T04:28:50.353Z,94.63
2023-04-02T04:29:50.282Z,94.53
2023-04-02T04:30:50.306Z,95.04
2023-04-02T04:31:50.299Z,94.53
2023-04-02T04:32:50.338Z,94.11
2023-04-02T04:33:50.218Z,94.32
2023-04-02T04:34:50.226Z,94.42
2023-04-02T04:35:50.229Z,94.21
2023-04-02T04:36:50.207Z,94.32
2023-04-02T04:37:50.197Z,94.46
2023-04-02T04:38:50.188Z,94.36
2023-04-02T04:39:50.165Z,94.67
2023-04-02T04:40:50.174Z,94.98
2023-04-02T04:41:50.140Z,95.09
2023-04-02T04:42:50.178Z,95.04
2023-04-02T04:43:50.120Z,94.73
2023-04-02T04:44:50.119Z,94.94
2023-04-02T04:45:50.125Z,94.53
2023-04-02T04:46:50.100Z,94.26
2023-04-02T04:47:50.098Z,94.36
2023-04-02T04:48:50.091Z,94.57
2023-04-02T04:49:50.773Z,94.57
2023-04-02T04:50:50.070Z,94.46
2023-04-02T04:51:50.032Z,94.57
2023-04-02T04:52:51.042Z,94.40
2023-04-02T04:53:50.040Z,94.51
2023-04-02T04:54:50.129Z,94.82
2023-04-02T04:55:50.007Z,94.40
2023-04-02T04:56:50.072Z,94.20
2023-04-02T04:57:49.961Z,94.09
2023-04-02T04:58:49.994Z,94.40
2023-04-02T04:59:49.987Z,94.40
2023-04-02T05:00:50.643Z,94.61
2023-04-02T05:01:49.974Z,94.40
2023-04-02T05:02:50.051Z,94.30
2023-04-02T05:03:49.918Z,94.09
2023-04-02T05:04:50.206Z,94.20
2023-04-02T05:05:49.864Z,94.51
2023-04-02T05:06:49.890Z,94.96
2023-04-02T05:07:49.874Z,94.76
2023-04-02T05:08:49.865Z,94.55
2023-04-02T05:09:49.854Z,94.24
2023-04-02T05:10:49.854Z,94.24
2023-04-02T05:11:49.799Z,93.78
2023-04-02T05:12:49.862Z,93.26
2023-04-02T05:13:49.770Z,93.37
2023-04-02T05:14:49.802Z,92.94
2023-04-02T05:15:49.822Z,92.53
2023-04-02T05:16:49.781Z,92.11
2023-04-02T05:17:49.798Z,92.43
2023-04-02T05:18:49.766Z,92.74
2023-04-02T05:19:49.808Z,92.74
2023-04-02T05:20:49.712Z,93.05
2023-04-02T05:21:49.724Z,92.74
2023-04-02T05:22:49.676Z,92.74
2023-04-02T05:23:49.750Z,92.84
2023-04-02T05:24:49.681Z,92.84
2023-04-02T05:25:49.674Z,92.80
2023-04-02T05:26:49.666Z,91.97
2023-04-02T05:27:49.685Z,91.39
2023-04-02T05:28:50.330Z,91.80
2023-04-02T05:29:49.647Z,92.01
2023-04-02T05:30:49.629Z,92.01
2023-04-02T05:31:49.640Z,91.70
2023-04-02T05:32:49.613Z,92.26
2023-04-02T05:33:49.619Z,92.57
2023-04-02T05:34:49.564Z,92.47
2023-04-02T05:35:49.614Z,91.85
2023-04-02T05:36:49.534Z,92.26
2023-04-02T05:37:49.586Z,92.47
2023-04-02T05:38:49.532Z,92.57
2023-04-02T05:39:49.538Z,92.47
2023-04-02T05:40:49.485Z,92.57
2023-04-02T05:41:49.511Z,93.10
2023-04-02T05:42:49.490Z,93.20
2023-04-02T05:43:49.485Z,92.99
2023-04-02T05:44:49.450Z,93.51
2023-04-02T05:45:49.463Z,92.99
2023-04-02T05:46:49.498Z,92.57
2023-04-02T05:47:49.475Z,92.57
2023-04-02T05:48:49.397Z,92.47
2023-04-02T05:49:49.422Z,92.78
2023-04-02T05:50:49.396Z,92.99
2023-04-02T05:51:49.415Z,92.99
2023-04-02T05:52:49.362Z,92.78
2023-04-02T05:53:49.390Z,92.68
2023-04-02T05:54:49.333Z,92.47
2023-04-02T05:55:49.358Z,92.36
2023-04-02T05:56:49.395Z,92.36
2023-04-02T05:58:01.300Z,92.47
2023-04-02T05:58:50.386Z,92.68
2023-04-02T05:59:49.306Z,92.47
2023-04-02T06:00:49.287Z,92.36
2023-04-02T06:01:49.394Z,92.47
2023-04-02T06:02:49.303Z,92.68
2023-04-02T06:03:49.407Z,92.68
2023-04-02T06:04:49.221Z,92.99
2023-04-02T06:05:49.292Z,92.47
2023-04-02T06:06:49.208Z,92.30
2023-04-02T06:07:49.219Z,92.61
2023-04-02T06:08:49.195Z,92.93
2023-04-02T06:09:49.209Z,92.47
2023-04-02T06:10:49.161Z,92.36
2023-04-02T06:11:49.165Z,92.26
2023-04-02T06:12:49.137Z,92.36
2023-04-02T06:13:49.157Z,92.47
2023-04-02T06:14:49.191Z,92.57
2023-04-02T06:15:49.144Z,92.47
2023-04-02T06:16:49.188Z,91.64
2023-04-02T06:17:49.134Z,91.47
2023-04-02T06:18:49.071Z,92.10
2023-04-02T06:19:49.102Z,92.20
2023-04-02T06:20:49.047Z,91.68
2023-04-02T06:21:49.084Z,91.85
2023-04-02T06:22:49.047Z,91.95
2023-04-02T06:23:49.035Z,91.64
2023-04-02T06:24:49.026Z,91.85
2023-04-02T06:25:49.016Z,91.85
2023-04-02T06:26:48.998Z,91.53
2023-04-02T06:27:49.016Z,91.53
2023-04-02T06:28:48.953Z,91.64
2023-04-02T06:29:48.975Z,91.33
2023-04-02T06:30:49.093Z,91.74
2023-04-02T06:31:49.521Z,92.01
2023-04-02T06:32:48.988Z,90.87
2023-04-02T06:33:49.230Z,90.56
2023-04-02T06:34:49.292Z,90.87
2023-04-02T06:35:49.611Z,90.77
2023-04-02T06:36:49.719Z,90.77
2023-04-02T06:37:48.892Z,90.35
2023-04-02T06:38:48.851Z,90.25
2023-04-02T06:39:48.861Z,89.73
2023-04-02T06:40:48.845Z,90.14
2023-04-02T06:41:48.856Z,90.50
2023-04-02T06:42:48.804Z,90.50
2023-04-02T06:43:48.821Z,90.50
2023-04-02T06:44:48.796Z,90.08
2023-04-02T06:45:48.867Z,90.81
2023-04-02T06:46:51.082Z,90.91
2023-04-02T06:47:48.865Z,90.91
2023-04-02T06:48:48.743Z,91.08
2023-04-02T06:49:48.765Z,90.66
2023-04-02T06:50:48.728Z,90.87
2023-04-02T06:51:48.736Z,90.60
2023-04-02T06:52:48.712Z,90.91
2023-04-02T06:53:48.735Z,90.81
2023-04-02T06:54:48.773Z,90.29
2023-04-02T06:55:48.697Z,90.19
2023-04-02T06:56:48.722Z,90.19
2023-04-02T06:57:48.786Z,90.60
2023-04-02T06:58:48.655Z,90.60
2023-04-02T06:59:48.657Z,90.56
2023-04-02T07:00:48.635Z,89.83
2023-04-02T07:01:48.732Z,89.83
2023-04-02T07:02:48.654Z,90.14
2023-04-02T07:03:48.617Z,90.04
2023-04-02T07:04:48.640Z,90.08
2023-04-02T07:05:48.586Z,90.19
2023-04-02T07:06:48.551Z,90.70
2023-04-02T07:07:48.575Z,90.87
2023-04-02T07:08:48.569Z,89.67
2023-04-02T07:09:48.542Z,90.04
2023-04-02T07:10:48.612Z,90.45
2023-04-02T07:11:48.514Z,90.39
2023-04-02T07:12:48.563Z,89.87
2023-04-02T07:13:48.496Z,89.67
2023-04-02T07:14:48.454Z,89.77
2023-04-02T07:15:48.571Z,90.08
2023-04-02T07:16:49.394Z,90.19
2023-04-02T07:17:48.521Z,90.29
2023-04-02T07:18:48.445Z,90.56
2023-04-02T07:19:48.437Z,90.77
2023-04-02T07:20:48.400Z,90.77
2023-04-02T07:21:48.417Z,90.72
2023-04-02T07:22:48.364Z,90.00
2023-04-02T07:23:48.369Z,89.48
2023-04-02T07:24:48.339Z,89.17
2023-04-02T07:25:48.391Z,88.96
2023-04-02T07:26:48.383Z,89.27
2023-04-02T07:27:48.325Z,89.48
2023-04-02T07:28:48.316Z,89.48
2023-04-02T07:29:48.309Z,89.37
2023-04-02T07:30:48.283Z,89.58
2023-04-02T07:31:48.379Z,89.54
2023-04-02T07:32:48.341Z,89.13
2023-04-02T07:33:48.276Z,88.34
2023-04-02T07:34:48.256Z,88.34
2023-04-02T07:35:48.307Z,88.34
2023-04-02T07:36:48.231Z,88.85
2023-04-02T07:37:48.236Z,88.59
2023-04-02T07:38:48.201Z,88.44
2023-04-02T07:39:48.208Z,88.23
2023-04-02T07:40:48.181Z,88.54
2023-04-02T07:41:48.204Z,88.59
2023-04-02T07:42:48.153Z,88.69
2023-04-02T07:43:48.152Z,88.48
2023-04-02T07:44:48.154Z,88.90
2023-04-02T07:45:48.144Z,89.21
2023-04-02T07:46:48.157Z,88.59
2023-04-02T07:47:48.132Z,88.69
2023-04-02T07:48:48.103Z,88.69
2023-04-02T07:49:48.150Z,88.75
2023-04-02T07:50:48.057Z,88.44
2023-04-02T07:51:48.060Z,88.38
2023-04-02T07:52:48.030Z,88.48
2023-04-02T07:53:48.032Z,88.90
2023-04-02T07:54:48.033Z,88.38
2023-04-02T07:55:48.052Z,88.28
2023-04-02T07:56:48.804Z,88.28
2023-04-02T07:57:48.022Z,88.79
2023-04-02T07:58:47.985Z,89.11
2023-04-02T07:59:48.020Z,89.21
2023-04-02T08:00:47.945Z,89.11
2023-04-02T08:01:47.984Z,88.85
2023-04-02T08:02:47.976Z,88.54
2023-04-02T08:03:48.118Z,87.92
2023-04-02T08:04:47.924Z,88.17
2023-04-02T08:05:47.950Z,87.96
2023-04-02T08:06:47.864Z,88.59
2023-04-02T08:07:47.904Z,89.31
2023-04-02T08:08:47.856Z,89.11
2023-04-02T08:09:47.876Z,88.17
2023-04-02T08:10:47.846Z,88.07
2023-04-02T08:11:47.849Z,87.55
2023-04-02T08:12:47.812Z,88.07
2023-04-02T08:13:47.843Z,88.07
2023-04-02T08:14:47.794Z,88.02
2023-04-02T08:15:47.829Z,87.61
2023-04-02T08:16:47.837Z,87.40
2023-04-02T08:17:47.878Z,87.71
2023-04-02T08:18:47.774Z,87.19
2023-04-02T08:19:54.823Z,86.61
2023-04-02T08:20:48.723Z,87.34
2023-04-02T08:21:47.748Z,87.76
2023-04-02T08:22:47.706Z,87.65
2023-04-02T08:23:47.751Z,87.34
2023-04-02T08:24:47.669Z,87.40
2023-04-02T08:25:47.695Z,87.61
2023-04-02T08:26:47.649Z,87.71
2023-04-02T08:27:47.717Z,87.51
2023-04-02T08:28:47.663Z,87.16
2023-04-02T08:29:47.646Z,86.54
2023-04-02T08:30:47.609Z,86.43
2023-04-02T08:31:47.627Z,86.47
2023-04-02T08:32:47.681Z,86.47
2023-04-02T08:33:47.622Z,86.68
2023-04-02T08:34:47.587Z,86.78
2023-04-02T08:35:47.644Z,86.68
2023-04-02T08:36:47.541Z,86.88
2023-04-02T08:37:47.565Z,87.09
2023-04-02T08:38:47.559Z,86.88
2023-04-02T08:39:47.570Z,87.19
2023-04-02T08:40:47.512Z,86.47
2023-04-02T08:41:47.536Z,85.95
2023-04-02T08:42:47.505Z,85.95
2023-04-02T08:43:47.503Z,86.16
2023-04-02T08:44:47.517Z,85.64
2023-04-02T08:45:47.537Z,86.05
2023-04-02T08:46:47.466Z,86.47
2023-04-02T08:47:47.530Z,86.68
2023-04-02T08:48:47.418Z,86.88
2023-04-02T08:49:47.455Z,86.78
2023-04-02T08:50:47.448Z,86.33
2023-04-02T08:51:47.407Z,85.71
2023-04-02T08:52:47.419Z,85.43
2023-04-02T08:53:47.387Z,85.71
2023-04-02T08:54:47.415Z,86.16
2023-04-02T08:55:47.357Z,85.64
2023-04-02T08:56:47.342Z,86.05
2023-04-02T08:57:47.361Z,85.81
2023-04-02T08:58:47.304Z,85.60
2023-04-02T08:59:47.334Z,85.29
2023-04-02T09:00:47.292Z,85.29
2023-04-02T09:01:47.372Z,85.29
2023-04-02T09:02:47.327Z,85.50
2023-04-02T09:03:47.281Z,85.39
2023-04-02T09:04:47.293Z,85.50
2023-04-02T09:05:47.278Z,85.50
2023-04-02T09:06:47.242Z,84.98
2023-04-02T09:07:47.243Z,84.36
2023-04-02T09:08:47.263Z,84.77
2023-04-02T09:09:47.212Z,85.02
2023-04-02T09:10:47.176Z,85.19
2023-04-02T09:11:47.188Z,85.19
2023-04-02T09:12:47.145Z,85.50
2023-04-02T09:13:47.203Z,85.77
2023-04-02T09:14:47.134Z,85.14
2023-04-02T09:15:47.200Z,85.04
2023-04-02T09:16:47.786Z,84.36
2023-04-02T09:17:53.970Z,84.36
2023-04-02T09:18:48.107Z,84.46
2023-04-02T09:19:47.137Z,84.83
2023-04-02T09:20:47.064Z,84.15
2023-04-02T09:21:47.080Z,84.56
2023-04-02T09:22:47.068Z,84.63
2023-04-02T09:23:47.088Z,84.83
2023-04-02T09:24:47.039Z,84.00
2023-04-02T09:25:57.342Z,83.59
2023-04-02T09:26:48.005Z,83.48
2023-04-02T09:27:47.021Z,82.86
2023-04-02T09:28:46.980Z,82.55
2023-04-02T09:29:47.017Z,83.17
2023-04-02T09:30:48.459Z,83.07
2023-04-02T09:31:47.035Z,83.24
2023-04-02T09:32:47.005Z,83.34
2023-04-02T09:33:46.971Z,83.03
2023-04-02T09:34:46.963Z,83.34
2023-04-02T09:35:46.946Z,83.03
2023-04-02T09:36:46.920Z,82.72
2023-04-02T09:37:46.893Z,82.58
2023-04-02T09:38:46.926Z,81.89
2023-04-02T09:39:47.132Z,82.41
2023-04-02T09:40:46.930Z,81.79
2023-04-02T09:41:55.794Z,82.45
2023-04-02T09:42:47.872Z,82.65
2023-04-02T09:43:46.864Z,82.34
2023-04-02T09:44:46.864Z,82.24
2023-04-02T09:45:46.831Z,82.34
2023-04-02T09:46:46.867Z,82.76
2023-04-02T09:47:48.256Z,82.65
2023-04-02T09:48:46.810Z,82.76
2023-04-02T09:49:46.795Z,81.62
2023-04-02T09:50:46.763Z,81.72
2023-04-02T09:51:46.740Z,82.76
2023-04-02T09:52:48.410Z,82.55
2023-04-02T09:53:46.703Z,82.24
2023-04-02T09:54:46.842Z,81.48
2023-04-02T09:55:46.707Z,81.27
2023-04-02T09:56:46.701Z,81.48
2023-04-02T09:57:47.324Z,81.89
2023-04-02T09:58:46.667Z,82.20
2023-04-02T09:59:46.657Z,82.41
2023-04-02T10:00:46.871Z,81.99
2023-04-02T10:01:46.992Z,81.89
2023-04-02T10:02:46.677Z,81.89
2023-04-02T10:03:46.671Z,81.37
2023-04-02T10:04:46.664Z,81.16
2023-04-02T10:05:46.966Z,81.37
2023-04-02T10:06:46.597Z,81.68
2023-04-02T10:07:47.640Z,82.20
2023-04-02T10:08:46.587Z,82.10
2023-04-02T10:09:46.556Z,81.58
2023-04-02T10:10:48.026Z,81.48
2023-04-02T10:11:46.962Z,81.79
2023-04-02T10:12:46.527Z,81.99
2023-04-02T10:13:46.517Z,82.31
2023-04-02T10:14:46.538Z,81.27
2023-04-02T10:15:46.481Z,81.06
2023-04-02T10:16:47.961Z,80.85
2023-04-02T10:17:46.713Z,80.65
2023-04-02T10:18:46.500Z,81.16
2023-04-02T10:19:46.452Z,81.44
2023-04-02T10:20:51.390Z,80.33
2023-04-02T10:21:47.548Z,80.92
2023-04-02T10:22:46.415Z,80.92
2023-04-02T10:23:46.393Z,81.13
2023-04-02T10:24:46.405Z,79.88
2023-04-02T10:25:46.383Z,79.47
2023-04-02T10:26:46.399Z,79.68
2023-04-02T10:27:47.795Z,79.27
2023-04-02T10:28:47.042Z,79.85
2023-04-02T10:29:46.338Z,79.74
2023-04-02T10:30:46.417Z,79.02
2023-04-02T10:31:46.326Z,79.23
2023-04-02T10:32:46.354Z,79.64
2023-04-02T10:33:48.237Z,79.64
2023-04-02T10:34:48.256Z,79.54
2023-04-02T10:35:47.080Z,79.02
2023-04-02T10:36:46.267Z,78.30
2023-04-02T10:37:46.275Z,78.40
2023-04-02T10:38:46.265Z,77.71
2023-04-02T10:39:46.237Z,77.40
2023-04-02T10:40:46.281Z,77.71
2023-04-02T10:41:47.636Z,77.50
2023-04-02T10:42:46.194Z,77.50
2023-04-02T10:43:46.168Z,77.40
2023-04-02T10:44:46.177Z,77.29
2023-04-02T10:45:46.208Z,77.40
2023-04-02T10:46:46.186Z,77.67
2023-04-02T10:47:47.642Z,77.05
2023-04-02T10:48:46.169Z,76.74
2023-04-02T10:49:46.181Z,76.43
2023-04-02T10:50:46.318Z,76.67
2023-04-02T10:51:46.091Z,76.36
2023-04-02T10:52:46.112Z,76.53
2023-04-02T10:53:46.092Z,75.84
2023-04-02T10:54:47.557Z,76.05
2023-04-02T10:55:46.039Z,75.84
2023-04-02T10:56:50.951Z,75.84
2023-04-02T10:57:46.013Z,75.84
2023-04-02T10:58:46.023Z,76.05
2023-04-02T10:59:46.022Z,76.05
2023-04-02T11:00:46.007Z,75.71
2023-04-02T11:01:45.999Z,75.50
2023-04-02T11:02:46.088Z,75.50
2023-04-02T11:03:47.597Z,75.50
2023-04-02T11:04:45.983Z,75.09
2023-04-02T11:05:45.925Z,74.77
2023-04-02T11:06:46.888Z,74.46
2023-04-02T11:07:45.913Z,74.57
2023-04-02T11:08:45.933Z,74.46
2023-04-02T11:09:45.885Z,74.19
2023-04-02T11:10:45.913Z,74.91
2023-04-02T11:11:46.845Z,75.29
2023-04-02T11:12:46.014Z,75.60
2023-04-02T11:13:45.832Z,74.88
2023-04-02T11:14:47.060Z,74.98
2023-04-02T11:15:45.856Z,74.63
2023-04-02T11:16:47.427Z,74.53
2023-04-02T11:17:45.833Z,73.91
2023-04-02T11:18:47.273Z,73.91
2023-04-02T11:19:45.821Z,74.22
2023-04-02T11:20:45.787Z,74.22
2023-04-02T11:21:57.944Z,74.32
2023-04-02T11:22:46.759Z,74.63
2023-04-02T11:23:45.754Z,74.40
2023-04-02T11:24:45.748Z,74.19
2023-04-02T11:25:45.724Z,74.19
2023-04-02T11:26:45.728Z,73.98
2023-04-02T11:27:45.706Z,73.15
2023-04-02T11:28:45.715Z,73.05
2023-04-02T11:29:46.408Z,73.05
2023-04-02T11:30:45.709Z,73.15
2023-04-02T11:31:45.692Z,72.50
2023-04-02T11:32:46.691Z,72.08
2023-04-02T11:33:48.080Z,71.98
2023-04-02T11:34:46.306Z,71.15
2023-04-02T11:35:45.686Z,71.36
2023-04-02T11:36:45.612Z,71.78
2023-04-02T11:37:45.594Z,71.15
2023-04-02T11:38:45.611Z,71.26
2023-04-02T11:39:45.555Z,71.15
2023-04-02T11:40:45.571Z,70.50
2023-04-02T11:41:45.542Z,70.40
2023-04-02T11:42:47.544Z,70.50
2023-04-02T11:43:45.695Z,70.61
2023-04-02T11:44:46.320Z,70.50
2023-04-02T11:45:52.660Z,71.30
2023-04-02T11:46:46.590Z,70.67
2023-04-02T11:47:45.568Z,69.23
2023-04-02T11:48:45.481Z,69.12
2023-04-02T11:49:45.435Z,69.54
2023-04-02T11:50:45.473Z,69.71
2023-04-02T11:51:45.540Z,69.61
2023-04-02T11:52:45.539Z,69.71
2023-04-02T11:53:45.403Z,69.71
2023-04-02T11:54:45.411Z,69.09
2023-04-02T11:55:45.372Z,68.68
2023-04-02T11:56:45.410Z,68.68
2023-04-02T11:57:45.591Z,69.17
2023-04-02T11:58:45.374Z,67.61
2023-04-02T11:59:45.584Z,66.89
2023-04-02T12:00:45.338Z,67.24
2023-04-02T12:01:45.348Z,68.06
2023-04-02T12:02:45.448Z,67.13
2023-04-02T12:03:45.288Z,67.65
2023-04-02T12:04:45.314Z,68.44
2023-04-02T12:05:45.337Z,67.51
2023-04-02T12:06:45.287Z,67.72
2023-04-02T12:07:45.520Z,66.89
2023-04-02T12:08:56.738Z,66.69
2023-04-02T12:09:46.219Z,67.00
2023-04-02T12:10:45.242Z,66.17
2023-04-02T12:11:45.197Z,66.93
2023-04-02T12:12:46.234Z,67.24
2023-04-02T12:13:45.195Z,66.82
2023-04-02T12:14:45.186Z,68.16
2023-04-02T12:15:46.647Z,68.40
2023-04-02T12:16:45.208Z,68.71
2023-04-02T12:17:45.173Z,68.71
2023-04-02T12:18:45.166Z,68.61
2023-04-02T12:19:45.115Z,69.64
2023-04-02T12:20:46.612Z,69.40
2023-04-02T12:21:45.119Z,69.82
2023-04-02T12:22:45.104Z,68.78
2023-04-02T12:23:45.104Z,69.40
2023-04-02T12:24:45.074Z,69.82
2023-04-02T12:25:45.097Z,69.40
2023-04-02T12:26:45.421Z,68.27
2023-04-02T12:27:45.202Z,67.47
2023-04-02T12:28:45.039Z,67.99
2023-04-02T12:29:45.103Z,68.61
2023-04-02T12:30:45.063Z,68.68
2023-04-02T12:31:45.005Z,68.82
2023-04-02T12:32:45.026Z,69.23
2023-04-02T12:33:44.968Z,69.51
2023-04-02T12:34:44.961Z,69.40
2023-04-02T12:35:44.991Z,69.71
2023-04-02T12:36:44.976Z,68.92
2023-04-02T12:37:44.915Z,68.82
2023-04-02T12:38:44.921Z,69.12
2023-04-02T12:39:44.908Z,69.33
2023-04-02T12:40:44.948Z,69.54
2023-04-02T12:41:44.893Z,69.23
2023-04-02T12:42:44.903Z,68.92
2023-04-02T12:43:46.305Z,69.20
2023-04-02T12:44:44.898Z,68.99
2023-04-02T12:45:44.826Z,68.48
2023-04-02T12:46:44.867Z,69.20
2023-04-02T12:47:44.833Z,69.61
2023-04-02T12:48:44.823Z,68.88
2023-04-02T12:49:44.795Z,68.78
2023-04-02T12:50:44.785Z,68.88
2023-04-02T12:51:44.855Z,68.78
2023-04-02T12:52:44.794Z,68.58
2023-04-02T12:53:44.732Z,68.51